College Park, Nevada
Current Conditions -  °F | °C
As of 12:53 AM on Saturday 20 Dec 2014 (Local Time) from KVGT Reporting Station
Clear Clear  
Wind Chill: 39°   Ceiling: Unl
Heat Index: 43°   Visibility: 10mi
Dew Point: 37°   Wind: 6mph
Humidity: 80%   Direction: 340°NNW
Pressure: 30.17"   Gusts: NA
Location:  36.2257°N, 115.178°W
Report Text: KVGT 200853Z AUTO 34005KT 10SM CLR 06/03 A3017 RMK AO2 SLP235 T00610028 58005 TSNO
Loading
Personal Weather Stations






























Interactive Weather Map New forecast layout! Learn more

10-Day Weather Forecast

Advertisements
Track Severe Weather on mobile